New Paltz, NY (12561)

3:35 AM EST on February 09, 2016 (GMT -0500)
Town of Lloyd | | Change Station
CLOSE
Current Station
Personal Weather Station
Location: Highland, NY
Elevation: 427 ft
Nearby Weather Stations

Elev 427 ft 41.72 °N, 74.01 °W | Updated 2 seconds ago

Overcast
Overcast
23.7 °F
Feels Like 24 °F
N
1.8
Wind Variable Wind from NE
Gusts 2.5 mph

Today
High -- | Low -- °F
--% Chance of Precip.
Yesterday
High -- | Low -- °F
Precip. -- in
Pressure 29.72 in
Visibility 2.0 miles
Clouds Overcast 3100 ft
Windchill 24 °F
Dew Point 18 °F
Humidity 78%
Rainfall 0.00 in
Snow Depth Not available.
7:00 AM 5:21 PM
New Moon, 1% visible
SPECI KPOU 090825Z AUTO 00000KT 2SM -SN OVC031 M04/M07 A2972 RMK AO2 P0001 T10391067
Pressure 29.72 in
Visibility 2.0 miles
Clouds Overcast 3100 ft
Windchill 24 °F
Dew Point 18 °F
Humidity 78%
Rainfall 0.00 in
Snow Depth Not available.
7:00 AM 5:21 PM
New Moon, 1% visible
SPECI KPOU 090825Z AUTO 00000KT 2SM -SN OVC031 M04/M07 A2972 RMK AO2 P0001 T10391067

10-Day Weather Forecast

Almanac

Astronomy

Feb. 09, 2016 Rise Set
Actual Time
Civil Twilight
Nautical Twilight
Astronomical Twilight
Moon
Length of Visible Light
Length of Day
Tomorrow will be .
, % of the Moon is Illuminated

Today's Extremes

State Highs State Lows

Community

WunderPhotos

Upload Photos

1,891,571 photos uploaded!

WunderBlog® & News

Nearby

Air Quality

  Air Quality AQ Index Pollutant
Not available.

Snow Depth

Station Depth Elevation

Earthquake Activity

City Distance Mag. Time & Date
Minimum magnitude displayed is 2.5.

Coastal Water Temperatures

Place Temperature

Stations

Nearby Weather Stations

Station Location Temp. Windchill Dew Point Humidity Wind Precip. Elev Updated Type
                   

Watches & Warnings

There are currently no watches in effect.